Time;durP1;ratioP1;P1;durP2;ratioP2;P2;SDS_P1;SDS_P2;PMS_P1;PMS_P2;Temp;Humidity;BMP_temperature;BMP_pressure;BME280_temperature;BME280_humidity;BME280_pressure;Samples;Min_cycle;Max_cycle;Signal;HPM_P1;HPM_P2
2023/01/20 00:00:22;;;;;;;9.07;4.63;;;;;;;15.57;53.61;98666.34;5095733;28;20020;-81
2023/01/20 00:02:47;;;;;;;15.43;5.55;;;;;;;15.18;53.55;98598.66;5094482;28;20031;-80
2023/01/20 00:05:13;;;;;;;11.82;5.18;;;;;;;15.13;53.72;98579.91;5095579;28;20492;-80
2023/01/20 00:07:38;;;;;;;9.32;4.90;;;;;;;15.67;53.52;98663.13;5095643;28;20404;-81
2023/01/20 00:10:04;;;;;;;10.52;5.35;;;;;;;15.60;53.46;98635.78;5095751;28;20514;-80
2023/01/20 00:12:30;;;;;;;11.10;5.57;;;;;;;15.42;53.73;98612.75;5095612;28;20485;-81
2023/01/20 00:14:56;;;;;;;17.67;6.05;;;;;;;15.51;53.77;98610.56;5095405;28;20103;-80
2023/01/20 00:17:21;;;;;;;10.93;6.30;;;;;;;15.40;53.67;98582.09;5095336;28;20028;-80
2023/01/20 00:19:46;;;;;;;11.25;5.38;;;;;;;15.33;53.50;98558.28;5095006;28;20507;-81
2023/01/20 00:22:12;;;;;;;10.07;5.25;;;;;;;15.27;53.82;98564.53;5095102;28;20043;-81
2023/01/20 00:24:37;;;;;;;11.95;5.75;;;;;;;15.33;53.75;98546.84;5095295;28;20084;-81
2023/01/20 00:27:03;;;;;;;8.07;5.50;;;;;;;15.22;53.92;98559.09;5095053;28;20479;-80
2023/01/20 00:29:28;;;;;;;12.68;5.25;;;;;;;15.47;53.55;98610.19;5095161;28;20469;-81
2023/01/20 00:31:53;;;;;;;9.07;5.60;;;;;;;15.62;53.58;98607.13;5095145;28;20027;-81
2023/01/20 00:34:19;;;;;;;10.95;5.68;;;;;;;15.58;53.79;98596.13;5095047;28;20107;-81
2023/01/20 00:36:44;;;;;;;10.00;5.10;;;;;;;15.88;53.62;98649.22;5094013;28;20035;-80
2023/01/20 00:39:10;;;;;;;8.52;5.10;;;;;;;15.39;53.83;98578.63;5094857;28;20040;-80
2023/01/20 00:41:35;;;;;;;11.05;5.78;;;;;;;15.49;53.92;98568.22;5095140;28;20054;-81
2023/01/20 00:44:00;;;;;;;12.73;5.88;;;;;;;15.24;54.05;98541.06;5093291;28;20103;-80
2023/01/20 00:46:26;;;;;;;14.63;5.55;;;;;;;15.57;53.88;98583.00;5095498;28;20057;-81
2023/01/20 00:48:52;;;;;;;8.00;4.97;;;;;;;15.63;54.35;98614.06;5095334;28;20081;-80
2023/01/20 00:51:17;;;;;;;12.85;5.60;;;;;;;15.68;54.19;98603.53;5094542;28;20088;-80
2023/01/20 00:53:43;;;;;;;9.52;4.75;;;;;;;15.29;53.91;98559.78;5094327;28;20028;-80
2023/01/20 00:56:08;;;;;;;10.82;5.35;;;;;;;15.22;53.96;98528.00;5094431;28;20084;-81
2023/01/20 00:58:34;;;;;;;9.98;5.63;;;;;;;15.53;54.54;98581.84;5094315;28;20485;-81
2023/01/20 01:01:00;;;;;;;12.60;5.97;;;;;;;15.24;54.73;98560.50;5093157;28;20024;-80
2023/01/20 01:03:26;;;;;;;11.10;5.20;;;;;;;15.74;54.83;98645.19;5094408;28;20034;-81
2023/01/20 01:05:52;;;;;;;10.00;4.20;;;;;;;15.72;54.20;98617.19;5093039;28;20499;-81
2023/01/20 01:08:18;;;;;;;8.82;4.10;;;;;;;15.39;52.74;98577.81;5091528;28;20032;-82
2023/01/20 01:10:43;;;;;;;6.00;3.08;;;;;;;15.09;52.88;98525.59;5094419;28;20032;-81
2023/01/20 01:13:09;;;;;;;6.68;3.40;;;;;;;15.41;53.05;98589.03;5094323;28;20024;-81
2023/01/20 01:15:35;;;;;;;8.75;3.88;;;;;;;15.44;52.80;98583.25;5094251;28;20107;-81
2023/01/20 01:18:01;;;;;;;7.60;3.85;;;;;;;15.14;53.30;98536.34;5094118;28;20149;-81
2023/01/20 01:20:27;;;;;;;7.90;4.75;;;;;;;15.34;54.25;98543.13;5093744;28;20075;-81
2023/01/20 01:22:53;;;;;;;11.70;5.22;;;;;;;15.03;54.81;98537.16;5093926;28;20035;-81
2023/01/20 01:25:19;;;;;;;9.85;5.10;;;;;;;15.48;55.06;98619.00;5094007;28;20028;-81
2023/01/20 01:27:44;;;;;;;7.57;4.70;;;;;;;14.64;55.41;98472.16;5094052;28;20032;-81
2023/01/20 01:30:10;;;;;;;11.35;5.32;;;;;;;15.49;54.96;98594.00;5092668;28;20032;-81
2023/01/20 01:32:36;;;;;;;11.60;5.90;;;;;;;14.70;55.53;98467.78;5093951;28;20099;-80
2023/01/20 01:35:01;;;;;;;12.25;6.15;;;;;;;14.76;55.63;98469.50;5093728;28;20083;-80
2023/01/20 01:37:27;;;;;;;11.55;6.30;;;;;;;15.06;55.30;98535.88;5093860;28;20028;-80
2023/01/20 01:39:53;;;;;;;12.48;5.78;;;;;;;15.18;55.35;98540.16;5093591;28;20038;-81
2023/01/20 01:42:23;;;;;;;11.13;6.60;;;;;;;15.50;55.62;98574.34;5093686;28;20028;-81
2023/01/20 01:45:10;;;;;;;11.93;6.30;;;;;;;15.44;55.77;98557.47;5093661;28;20024;-80
2023/01/20 01:47:39;;;;;;;12.93;5.68;;;;;;;15.06;55.42;98507.44;5093550;28;20484;-81
2023/01/20 01:50:06;;;;;;;12.95;6.15;;;;;;;15.14;54.83;98482.34;5092326;28;20024;-81
2023/01/20 01:52:32;;;;;;;14.75;6.20;;;;;;;15.07;54.98;98479.81;5093600;28;20027;-81
2023/01/20 01:54:58;;;;;;;13.63;6.65;;;;;;;15.16;55.17;98518.28;5093655;28;20032;-81
2023/01/20 01:57:24;;;;;;;12.48;6.00;;;;;;;14.96;55.16;98483.28;5093386;28;20024;-82
2023/01/20 01:59:50;;;;;;;13.32;6.43;;;;;;;15.50;55.10;98521.94;5093630;28;20020;-80
2023/01/20 02:02:17;;;;;;;13.02;6.68;;;;;;;15.14;55.10;98499.13;5092031;28;20024;-81
2023/01/20 02:04:43;;;;;;;11.60;6.25;;;;;;;15.27;54.92;98544.06;5093261;28;20028;-81
2023/01/20 02:07:13;;;;;;;12.05;6.30;;;;;;;14.89;55.40;98485.25;5093186;28;20024;-80
2023/01/20 02:09:38;;;;;;;10.82;6.63;;;;;;;15.45;55.66;98563.59;5093243;28;20543;-80
2023/01/20 02:12:14;;;;;;;10.68;6.00;;;;;;;14.84;55.40;98448.72;5093025;28;20110;-81
2023/01/20 02:14:49;;;;;;;12.63;6.53;;;;;;;15.40;55.80;98584.75;5092981;28;20069;-81
2023/01/20 02:17:27;;;;;;;13.65;6.85;;;;;;;15.34;55.54;98572.41;5092953;28;20023;-81
2023/01/20 02:20:35;;;;;;;14.20;6.47;;;;;;;14.65;55.98;98488.91;5092628;28;20044;-81
2023/01/20 02:23:00;;;;;;;14.10;6.38;;;;;;;15.33;56.21;98578.75;5084677;28;20064;-81
2023/01/20 02:25:47;;;;;;;10.10;5.85;;;;;;;15.29;56.17;98593.56;5093061;28;20515;-80
2023/01/20 02:28:30;;;;;;;12.57;7.15;;;;;;;15.35;56.31;98589.97;5092744;28;20035;-80
2023/01/20 02:31:24;;;;;;;11.57;6.93;;;;;;;15.30;56.13;98616.44;5092679;28;20032;-81
2023/01/20 02:33:55;;;;;;;14.65;6.75;;;;;;;15.26;56.27;98598.31;5092581;28;20107;-80
2023/01/20 02:36:44;;;;;;;15.75;6.75;;;;;;;15.09;55.99;98570.78;5092710;28;20027;-81
2023/01/20 02:39:13;;;;;;;13.43;7.18;;;;;;;14.17;56.15;98424.28;5092687;28;20060;-81
2023/01/20 02:42:06;;;;;;;11.10;7.93;;;;;;;15.31;56.33;98599.44;5091305;28;20089;-80
2023/01/20 02:44:39;;;;;;;13.48;7.18;;;;;;;15.22;56.28;98591.81;5092734;28;20488;-80
2023/01/20 02:47:29;;;;;;;14.32;7.45;;;;;;;15.23;55.83;98584.66;5091341;28;20039;-80
2023/01/20 02:50:15;;;;;;;10.02;6.82;;;;;;;14.97;55.62;98538.06;5092674;28;20028;-80
2023/01/20 02:52:44;;;;;;;8.20;6.93;;;;;;;15.30;55.68;98608.47;5091211;28;20035;-80
2023/01/20 02:55:16;;;;;;;14.15;7.22;;;;;;;15.37;55.62;98617.97;5092370;28;20024;-80
2023/01/20 02:57:50;;;;;;;14.38;7.18;;;;;;;15.17;55.38;98593.56;5092236;28;20020;-81
2023/01/20 03:00:25;;;;;;;13.57;7.55;;;;;;;15.24;55.57;98599.56;5092205;28;20028;-81
2023/01/20 03:02:55;;;;;;;14.90;7.40;;;;;;;15.36;56.11;98624.31;5092152;28;20493;-80
2023/01/20 03:05:24;;;;;;;10.10;7.30;;;;;;;15.37;55.98;98627.78;5092284;28;20031;-80
2023/01/20 03:07:52;;;;;;;12.13;7.47;;;;;;;14.54;55.80;98495.84;5092664;28;20024;-80
2023/01/20 03:10:22;;;;;;;10.77;7.25;;;;;;;14.83;55.86;98541.97;5100962;28;20562;-81
2023/01/20 03:12:53;;;;;;;11.23;7.32;;;;;;;15.45;56.00;98644.22;5096376;28;20031;-80
2023/01/20 03:15:25;;;;;;;11.13;7.43;;;;;;;15.24;56.17;98666.06;5091801;28;20028;-80
2023/01/20 03:17:51;;;;;;;13.55;8.07;;;;;;;15.32;56.41;98672.88;5090446;28;20413;-81
2023/01/20 03:20:17;;;;;;;10.00;7.20;;;;;;;14.64;56.51;98541.25;5091672;28;20058;-80
2023/01/20 03:22:42;;;;;;;11.50;7.72;;;;;;;14.69;56.24;98537.91;5090314;28;20020;-80
2023/01/20 03:25:10;;;;;;;11.32;7.80;;;;;;;14.96;56.38;98602.91;5091672;28;20484;-80
2023/01/20 03:27:35;;;;;;;14.52;8.18;;;;;;;14.84;56.49;98605.50;5091933;28;20404;-81
2023/01/20 03:30:01;;;;;;;11.60;8.00;;;;;;;15.17;56.81;98639.56;5094427;28;20030;-80
2023/01/20 03:32:28;;;;;;;12.70;7.75;;;;;;;15.38;56.38;98674.63;5099926;28;20031;-80
2023/01/20 03:34:55;;;;;;;11.80;6.90;;;;;;;14.80;56.45;98604.34;5090525;28;20394;-80
2023/01/20 03:37:22;;;;;;;14.52;8.02;;;;;;;15.41;56.08;98682.13;5091819;28;20481;-80
2023/01/20 03:39:48;;;;;;;17.75;7.15;;;;;;;15.40;56.17;98693.81;5091669;28;20103;-80
2023/01/20 03:42:15;;;;;;;13.10;7.05;;;;;;;15.39;56.15;98690.34;5091698;28;20034;-80
2023/01/20 03:44:43;;;;;;;10.77;7.55;;;;;;;15.37;55.89;98691.63;5091695;28;20035;-80
2023/01/20 03:47:38;;;;;;;10.70;6.75;;;;;;;15.38;55.79;98698.56;5091550;28;20088;-80
2023/01/20 03:50:12;;;;;;;14.25;6.78;;;;;;;15.38;55.94;98701.22;5090407;28;20039;-80
2023/01/20 03:52:46;;;;;;;10.52;7.00;;;;;;;15.35;56.08;98689.19;5091608;28;20035;-80
2023/01/20 03:55:19;;;;;;;9.98;7.30;;;;;;;15.08;56.15;98645.44;5091869;28;20076;-80
2023/01/20 03:57:55;;;;;;;12.45;7.43;;;;;;;14.84;56.39;98610.00;5091284;28;20106;-80
2023/01/20 04:00:24;;;;;;;12.27;6.57;;;;;;;15.37;56.33;98680.97;5090156;28;20090;-81
2023/01/20 04:02:52;;;;;;;11.25;6.63;;;;;;;14.73;56.57;98584.22;5091403;28;20412;-80
2023/01/20 04:05:18;;;;;;;11.05;6.18;;;;;;;15.37;56.66;98687.13;5091439;28;20089;-80
2023/01/20 04:07:44;;;;;;;10.10;6.18;;;;;;;14.59;56.59;98573.81;5090454;28;20036;-80
2023/01/20 04:10:14;;;;;;;11.07;6.60;;;;;;;14.66;56.87;98604.78;5091385;28;20455;-80
2023/01/20 04:12:40;;;;;;;13.60;6.32;;;;;;;14.69;56.88;98594.50;5091550;28;20035;-80
2023/01/20 04:15:06;;;;;;;13.18;6.15;;;;;;;15.23;57.25;98707.78;5091205;28;20028;-81
2023/01/20 04:17:32;;;;;;;11.23;5.65;;;;;;;15.21;57.26;98687.78;5091348;28;20027;-81
2023/01/20 04:20:05;;;;;;;10.35;6.05;;;;;;;15.10;57.18;98649.50;5091352;28;20052;-81
2023/01/20 04:22:42;;;;;;;8.55;5.72;;;;;;;14.71;56.96;98600.41;5089965;28;20107;-80
2023/01/20 04:25:24;;;;;;;12.45;6.03;;;;;;;15.13;57.10;98651.69;5091094;28;20035;-79
2023/01/20 04:27:50;;;;;;;;;;;;;;;14.99;57.11;98652.94;5090196;28;20028;-80
2023/01/20 04:30:15;;;;;;;9.35;5.47;;;;;;;14.89;56.77;98623.47;5091278;28;19908;-80
2023/01/20 04:32:41;;;;;;;8.95;5.03;;;;;;;14.97;56.61;98639.06;5090952;28;20112;-80
2023/01/20 04:35:08;;;;;;;7.90;5.32;;;;;;;14.65;56.59;98565.97;5089696;28;20020;-80
2023/01/20 04:37:33;;;;;;;13.23;5.47;;;;;;;14.93;55.63;98619.31;5091191;28;20409;-80
2023/01/20 04:39:59;;;;;;;11.98;5.53;;;;;;;14.16;56.04;98497.00;5091037;28;20024;-80
2023/01/20 04:42:24;;;;;;;7.85;4.43;;;;;;;14.75;55.73;98582.97;5091437;28;20028;-80
2023/01/20 04:44:50;;;;;;;10.93;6.22;;;;;;;14.67;55.63;98569.19;5095069;28;20111;-80
2023/01/20 04:47:15;;;;;;;8.90;5.28;;;;;;;14.63;55.40;98568.84;5094838;28;20031;-80
2023/01/20 04:49:41;;;;;;;10.27;5.30;;;;;;;14.69;55.47;98585.72;5094567;28;20090;-81
2023/01/20 04:52:06;;;;;;;9.50;4.95;;;;;;;13.20;55.19;98341.38;5093517;28;20473;-80
2023/01/20 04:54:31;;;;;;;7.65;4.90;;;;;;;13.99;55.37;98480.06;5094634;28;20032;-80
2023/01/20 04:56:57;;;;;;;7.82;4.82;;;;;;;14.22;55.61;98513.88;5095007;28;20035;-80
2023/01/20 04:59:22;;;;;;;10.48;5.25;;;;;;;14.38;56.05;98547.75;5094672;28;20020;-80
2023/01/20 05:01:48;;;;;;;7.90;5.65;;;;;;;14.10;56.45;98497.06;5094509;28;20023;-80
2023/01/20 05:04:13;;;;;;;11.68;5.80;;;;;;;13.95;56.46;98455.81;5094565;28;20020;-80
2023/01/20 05:06:41;;;;;;;9.90;5.82;;;;;;;14.07;56.94;98476.28;5093018;28;20031;-80
2023/01/20 05:09:11;;;;;;;10.63;6.20;;;;;;;14.69;56.68;98554.66;5094396;28;20035;-80
2023/01/20 05:11:36;;;;;;;11.20;5.85;;;;;;;14.40;57.04;98499.72;5094326;28;20039;-80
2023/01/20 05:14:01;;;;;;;13.77;6.40;;;;;;;14.21;57.13;98494.47;5093095;28;20024;-80
2023/01/20 05:16:30;;;;;;;17.67;6.85;;;;;;;14.74;57.24;98569.91;5094452;28;20028;-80
2023/01/20 05:18:56;;;;;;;12.68;6.72;;;;;;;14.05;57.65;98449.16;5094297;28;20031;-81
2023/01/20 05:21:21;;;;;;;15.50;6.28;;;;;;;12.96;57.32;98290.09;5094530;28;20023;-80
2023/01/20 05:23:47;;;;;;;12.23;5.90;;;;;;;13.92;57.24;98435.06;5093955;28;20166;-80
2023/01/20 05:26:12;;;;;;;13.43;6.80;;;;;;;13.50;57.26;98359.97;5094141;28;20484;-81
2023/01/20 05:28:37;;;;;;;11.75;6.47;;;;;;;13.41;57.08;98366.63;5092644;28;20081;-81
2023/01/20 05:31:03;;;;;;;11.45;5.90;;;;;;;14.25;57.16;98489.53;5093911;28;20027;-80
2023/01/20 05:33:28;;;;;;;10.68;5.72;;;;;;;14.17;57.65;98492.50;5092965;28;20028;-80
2023/01/20 05:35:54;;;;;;;13.27;6.22;;;;;;;14.07;57.99;98457.69;5093987;28;20031;-81
2023/01/20 05:38:19;;;;;;;12.57;6.22;;;;;;;14.72;59.04;98587.94;5094044;28;20099;-80
2023/01/20 05:40:44;;;;;;;12.27;5.85;;;;;;;14.29;59.86;98526.00;5092680;28;20034;-81
2023/01/20 05:43:10;;;;;;;7.90;4.57;;;;;;;14.08;59.57;98483.22;5094024;28;20090;-81
2023/01/20 05:45:35;;;;;;;6.35;4.13;;;;;;;14.16;60.11;98504.16;5092499;28;20536;-80
2023/01/20 05:48:01;;;;;;;7.25;3.75;;;;;;;14.20;60.03;98531.88;5093739;28;20039;-80
2023/01/20 05:50:28;;;;;;;7.57;3.67;;;;;;;14.49;59.70;98573.56;5093927;28;20016;-80
2023/01/20 05:52:53;;;;;;;4.82;3.65;;;;;;;14.02;59.95;98515.97;5095267;28;20079;-81
2023/01/20 05:55:19;;;;;;;7.50;4.07;;;;;;;13.78;60.39;98476.06;5102668;28;20063;-80
2023/01/20 05:57:45;;;;;;;5.95;3.90;;;;;;;14.17;60.52;98553.56;5095239;28;20020;-81
2023/01/20 06:00:12;;;;;;;7.70;4.35;;;;;;;14.07;60.67;98530.19;5093118;28;20107;-81
2023/01/20 06:02:38;;;;;;;6.32;3.75;;;;;;;14.09;60.90;98536.06;5093227;28;20028;-80
2023/01/20 06:05:05;;;;;;;8.43;4.00;;;;;;;14.27;61.38;98578.53;5091265;28;20081;-81
2023/01/20 06:07:30;;;;;;;8.10;4.68;;;;;;;13.55;61.57;98473.31;5091049;28;20035;-81
2023/01/20 06:09:56;;;;;;;10.52;5.10;;;;;;;13.40;61.67;98447.19;5092911;28;20027;-81
2023/01/20 06:12:22;;;;;;;11.70;5.93;;;;;;;14.32;61.83;98597.25;5091562;28;20047;-81
2023/01/20 06:14:47;;;;;;;14.68;5.85;;;;;;;13.61;62.18;98438.75;5092942;28;20028;-81
2023/01/20 06:17:13;;;;;;;15.00;5.68;;;;;;;14.10;61.58;98505.03;5093066;28;20027;-80
2023/01/20 06:19:38;;;;;;;11.98;5.63;;;;;;;13.68;61.46;98426.22;5092497;28;20441;-81
2023/01/20 06:22:05;;;;;;;12.50;7.35;;;;;;;14.49;61.69;98576.19;5092804;28;20027;-80
2023/01/20 06:24:31;;;;;;;11.43;6.60;;;;;;;14.70;61.56;98584.69;5092479;28;20028;-81
2023/01/20 06:26:56;;;;;;;8.68;5.68;;;;;;;14.43;61.51;98531.16;5092596;28;20417;-82
2023/01/20 06:29:22;;;;;;;10.15;5.88;;;;;;;14.31;61.45;98515.97;5092018;28;20436;-81
2023/01/20 06:31:47;;;;;;;10.70;6.18;;;;;;;14.34;61.11;98506.75;5092704;28;20035;-81
2023/01/20 06:34:13;;;;;;;10.00;5.25;;;;;;;14.13;61.08;98468.25;5092092;28;20405;-81
2023/01/20 06:36:38;;;;;;;12.32;5.88;;;;;;;14.55;60.99;98564.66;5092215;28;20020;-81
2023/01/20 06:39:04;;;;;;;12.18;5.07;;;;;;;14.60;60.48;98578.09;5090998;28;20032;-81
2023/01/20 06:41:29;;;;;;;8.73;4.90;;;;;;;14.42;60.78;98564.88;5092438;28;20035;-82
2023/01/20 06:43:55;;;;;;;8.02;4.63;;;;;;;14.05;60.33;98507.56;5092672;28;20081;-81
2023/01/20 06:46:21;;;;;;;7.72;4.72;;;;;;;13.90;59.90;98494.69;5092691;28;20024;-81
2023/01/20 06:48:47;;;;;;;7.18;4.65;;;;;;;14.55;59.46;98577.16;5089089;28;20032;-82
2023/01/20 06:51:16;;;;;;;7.65;4.60;;;;;;;14.15;59.66;98529.09;5072330;28;20109;-82
2023/01/20 06:53:42;;;;;;;7.43;4.53;;;;;;;14.05;59.72;98499.59;5072348;28;20419;-81
2023/01/20 06:56:10;;;;;;;7.20;4.93;;;;;;;14.23;60.06;98537.53;5089076;28;20036;-81
2023/01/20 06:58:35;;;;;;;8.88;4.68;;;;;;;14.23;60.09;98539.38;5090769;28;20029;-81
2023/01/20 07:01:10;;;;;;;9.18;4.60;;;;;;;13.73;60.73;98470.63;5092007;28;20059;-80
2023/01/20 07:03:36;;;;;;;8.55;4.93;;;;;;;14.48;61.17;98579.91;5091809;28;20028;-82
2023/01/20 07:06:12;;;;;;;7.72;5.45;;;;;;;14.48;61.23;98579.91;5091246;28;20557;-82
2023/01/20 07:08:38;;;;;;;8.15;5.13;;;;;;;14.50;62.38;98587.63;5091729;28;20512;-82
2023/01/20 07:11:04;;;;;;;10.15;5.88;;;;;;;14.12;62.48;98527.69;5091906;28;20111;-80
2023/01/20 07:13:29;;;;;;;17.75;11.20;;;;;;;13.55;62.98;98431.69;5091972;28;20058;-81
2023/01/20 07:15:54;;;;;;;11.90;6.20;;;;;;;14.40;63.22;98574.88;5087808;28;20038;-80
2023/01/20 07:18:20;;;;;;;13.05;8.60;;;;;;;14.00;63.66;98503.72;5106144;28;20019;-80
2023/01/20 07:20:45;;;;;;;9.82;5.85;;;;;;;14.09;64.29;98530.75;5110852;28;20051;-79
2023/01/20 07:23:11;;;;;;;10.30;6.38;;;;;;;13.94;63.93;98536.47;5090431;28;20478;-80
2023/01/20 07:25:37;;;;;;;13.50;6.47;;;;;;;13.89;64.27;98517.75;5091210;28;20040;-80
2023/01/20 07:28:03;;;;;;;14.80;6.28;;;;;;;14.35;65.04;98529.59;5091654;28;20020;-79
2023/01/20 07:30:29;;;;;;;8.73;5.10;;;;;;;13.86;65.08;98483.72;5091544;28;20024;-79
2023/01/20 07:32:54;;;;;;;15.68;6.95;;;;;;;13.50;65.44;98414.84;5091263;28;20039;-79
2023/01/20 07:35:19;;;;;;;6.15;5.15;;;;;;;14.05;64.99;98510.19;5091673;28;20036;-79
2023/01/20 07:37:45;;;;;;;12.45;8.68;;;;;;;13.30;65.10;98404.44;5091574;28;20034;-79
2023/01/20 07:40:11;;;;;;;8.20;5.78;;;;;;;13.97;65.20;98508.69;5091679;28;20060;-80
2023/01/20 07:42:37;;;;;;;10.15;4.97;;;;;;;13.81;64.73;98480.94;5090083;28;20034;-79
2023/01/20 07:45:04;;;;;;;10.07;7.18;;;;;;;13.85;64.99;98483.94;5090751;28;20157;-79
2023/01/20 07:47:29;;;;;;;8.32;5.32;;;;;;;13.31;64.85;98396.28;5091322;28;20024;-81
2023/01/20 07:49:54;;;;;;;10.55;7.10;;;;;;;14.08;65.13;98509.75;5089950;28;20028;-80
2023/01/20 07:52:20;;;;;;;10.70;5.95;;;;;;;13.62;64.58;98437.72;5091907;28;20054;-80
2023/01/20 07:54:45;;;;;;;7.88;5.28;;;;;;;13.77;64.44;98468.34;5105151;28;20052;-80
2023/01/20 07:57:11;;;;;;;6.68;3.75;;;;;;;13.39;64.45;98415.59;5111615;28;20053;-80
2023/01/20 07:59:36;;;;;;;10.63;7.95;;;;;;;14.19;64.22;98544.34;5088517;28;20039;-79
2023/01/20 08:02:02;;;;;;;7.93;4.03;;;;;;;13.64;64.02;98425.03;5088476;28;20035;-79
2023/01/20 08:04:27;;;;;;;9.55;5.32;;;;;;;14.42;64.12;98543.63;5089796;28;20040;-79
2023/01/20 08:06:52;;;;;;;13.75;6.57;;;;;;;14.21;63.55;98483.84;5087799;28;20466;-79
2023/01/20 08:09:18;;;;;;;9.93;7.25;;;;;;;14.56;63.81;98547.69;5089628;28;20032;-79
2023/01/20 08:11:43;;;;;;;9.02;4.65;;;;;;;14.32;63.60;98520.25;5095994;28;20565;-80
2023/01/20 08:14:09;;;;;;;7.55;4.40;;;;;;;13.99;62.71;98438.41;5086801;28;20123;-79
2023/01/20 08:16:34;;;;;;;7.68;3.40;;;;;;;13.91;62.21;98414.06;5090685;28;20085;-80
2023/01/20 08:19:00;;;;;;;8.32;3.33;;;;;;;13.89;61.90;98440.81;5081834;28;20432;-79
2023/01/20 08:21:29;;;;;;;8.38;3.70;;;;;;;14.57;61.87;98554.63;5089822;28;20023;-79
2023/01/20 08:23:56;;;;;;;5.15;3.30;;;;;;;13.75;62.25;98420.00;5094101;28;20024;-80
2023/01/20 08:26:23;;;;;;;7.75;3.80;;;;;;;14.47;61.97;98535.78;5087834;28;20024;-78
2023/01/20 08:28:50;;;;;;;5.85;4.00;;;;;;;13.78;61.93;98438.94;5089288;28;20024;-80
2023/01/20 08:31:18;;;;;;;9.35;3.47;;;;;;;14.25;61.82;98508.09;5092161;28;20062;-79
2023/01/20 08:33:45;;;;;;;5.93;3.78;;;;;;;14.48;61.36;98536.59;5092046;28;20020;-80
2023/01/20 08:36:12;;;;;;;7.25;4.97;;;;;;;14.48;61.36;98534.75;5093177;28;20020;-79
2023/01/20 08:38:39;;;;;;;8.77;5.32;;;;;;;14.44;61.27;98536.25;5108147;28;21945;-79
2023/01/20 08:41:14;;;;;;;6.45;4.75;;;;;;;14.22;61.41;98501.41;5092568;28;20024;-79
2023/01/20 08:43:41;;;;;;;7.35;4.88;;;;;;;14.49;61.34;98546.19;5092010;28;20035;-80
2023/01/20 08:46:09;;;;;;;6.10;3.90;;;;;;;14.46;61.63;98566.03;5100513;28;20155;-80
2023/01/20 08:48:36;;;;;;;6.47;3.85;;;;;;;13.59;61.75;98459.38;5092357;28;20019;-80
2023/01/20 08:51:04;;;;;;;12.05;4.93;;;;;;;14.31;62.44;98610.75;5090504;28;20048;-80
2023/01/20 08:53:29;;;;;;;8.65;5.43;;;;;;;13.90;63.31;98590.22;5083579;28;20031;-81
2023/01/20 08:55:57;;;;;;;10.25;5.35;;;;;;;14.20;63.58;98593.75;5092030;28;20024;-80
2023/01/20 08:58:22;;;;;;;9.68;4.50;;;;;;;14.35;63.73;98637.66;5093994;28;20094;-80
2023/01/20 09:00:48;;;;;;;8.63;3.97;;;;;;;13.68;64.00;98528.84;5091443;28;20552;-80
2023/01/20 09:03:13;;;;;;;6.65;4.35;;;;;;;13.69;63.82;98530.47;5092775;28;20077;-81
2023/01/20 09:05:39;;;;;;;7.53;4.53;;;;;;;13.78;63.51;98581.38;5092951;28;20032;-81
2023/01/20 09:08:04;;;;;;;5.85;3.53;;;;;;;13.73;63.08;98566.13;5089325;28;20061;-81
2023/01/20 09:10:33;;;;;;;6.07;2.40;;;;;;;13.38;62.76;98542.03;5108201;28;20023;-81
2023/01/20 09:12:59;;;;;;;3.53;1.90;;;;;;;13.73;62.78;98634.28;5112043;28;20107;-80
2023/01/20 09:15:24;;;;;;;5.25;3.65;;;;;;;13.74;62.92;98642.03;5100958;28;20150;-81
2023/01/20 09:17:50;;;;;;;3.35;2.22;;;;;;;13.57;63.30;98620.56;5092172;28;20484;-81
2023/01/20 09:20:15;;;;;;;5.80;2.95;;;;;;;13.10;63.71;98554.91;5092940;28;20040;-80
2023/01/20 09:22:41;;;;;;;4.65;1.90;;;;;;;13.04;63.75;98553.94;5093776;28;20064;-81
2023/01/20 09:25:09;;;;;;;4.97;3.05;;;;;;;13.09;64.17;98546.16;5093819;28;20020;-81
2023/01/20 09:27:34;;;;;;;4.00;3.00;;;;;;;13.71;64.35;98662.88;5093960;28;20055;-80
2023/01/20 09:29:59;;;;;;;8.55;5.00;;;;;;;13.40;64.91;98605.47;5108986;28;20112;-81
2023/01/20 09:32:25;;;;;;;5.95;3.78;;;;;;;13.01;65.08;98536.63;5114266;28;20068;-81
2023/01/20 09:34:50;;;;;;;5.38;2.55;;;;;;;12.97;65.02;98527.50;5111166;28;20019;-81
2023/01/20 09:46:36;;;;;;;8.80;4.32;;;;;;;13.52;64.90;98680.59;5106988;28;20116;-81
2023/01/20 09:55:23;;;;;;;6.18;3.40;;;;;;;13.49;65.63;98665.94;5090715;28;20055;-81
2023/01/20 09:57:58;;;;;;;5.68;3.78;;;;;;;12.95;65.61;98573.78;5087888;28;20415;-81
2023/01/20 10:00:26;;;;;;;5.28;4.60;;;;;;;13.44;66.20;98638.47;5089720;28;20019;-81
2023/01/20 10:03:03;;;;;;;7.90;5.00;;;;;;;13.50;65.83;98634.94;5093128;28;20206;-80
2023/01/20 10:05:36;;;;;;;7.55;4.15;;;;;;;13.09;65.84;98558.59;5106798;27;20429;-80
2023/01/20 10:08:07;;;;;;;6.32;3.17;;;;;;;13.62;65.49;98636.63;5079895;28;20029;-80
2023/01/20 10:10:42;;;;;;;8.05;5.03;;;;;;;13.58;65.57;98616.09;5092139;28;20020;-80
2023/01/20 10:13:13;;;;;;;9.13;6.15;;;;;;;13.69;65.61;98588.81;5094903;28;20035;-80
2023/01/20 10:15:46;;;;;;;7.45;4.82;;;;;;;12.92;65.90;98437.28;5105618;28;20523;-80
2023/01/20 10:18:22;;;;;;;6.93;4.00;;;;;;;13.05;65.75;98470.78;5092080;28;20020;-80
2023/01/20 10:21:24;;;;;;;6.82;3.83;;;;;;;13.72;65.78;98535.31;5091454;28;20048;-80
2023/01/20 10:24:10;;;;;;;5.47;3.80;;;;;;;13.38;65.67;98491.66;5083555;28;20054;-80
2023/01/20 10:26:45;;;;;;;7.32;4.32;;;;;;;12.62;65.51;98357.69;5088915;28;20031;-80
2023/01/20 10:29:40;;;;;;;4.93;4.22;;;;;;;12.98;65.50;98417.03;5092065;28;20098;-79
2023/01/20 10:32:14;;;;;;;5.00;3.25;;;;;;;13.14;65.38;98429.69;5077473;28;20024;-79
2023/01/20 10:34:46;;;;;;;5.32;2.42;;;;;;;12.89;64.74;98408.56;5099401;28;20110;-80
2023/01/20 10:37:14;;;;;;;4.22;3.20;;;;;;;13.39;65.10;98485.34;5112769;28;20050;-80
2023/01/20 10:40:26;;;;;;;4.88;2.55;;;;;;;13.42;64.57;98500.00;5110030;28;20515;-79
2023/01/20 10:42:57;;;;;;;2.80;2.00;;;;;;;13.10;64.43;98486.00;5073271;28;20101;-80
2023/01/20 10:45:37;;;;;;;3.70;2.50;;;;;;;13.43;63.84;98534.25;5087009;28;20062;-80
2023/01/20 10:48:31;;;;;;;3.60;2.15;;;;;;;13.14;63.89;98495.13;5095121;28;20401;-80
2023/01/20 10:51:28;;;;;;;3.85;2.78;;;;;;;13.44;64.01;98514.66;5091167;28;20028;-80
2023/01/20 10:54:36;;;;;;;3.50;2.90;;;;;;;13.46;63.62;98532.97;5091230;28;20092;-79
2023/01/20 10:57:04;;;;;;;3.67;2.63;;;;;;;12.59;64.15;98420.88;5104957;28;20052;-79
2023/01/20 10:59:36;;;;;;;3.72;2.10;;;;;;;13.32;63.95;98501.28;5085478;28;20072;-79
2023/01/20 11:02:16;;;;;;;;;;;;;;;13.19;64.10;98490.03;5088183;28;20532;-79
2023/01/20 11:04:42;;;;;;;1.92;1.58;;;;;;;12.99;64.17;98471.66;5107770;28;20401;-79
2023/01/20 11:07:14;;;;;;;2.65;1.58;;;;;;;13.07;63.46;98466.06;5089616;28;20064;-79
2023/01/20 11:09:41;;;;;;;3.10;2.58;;;;;;;12.39;63.86;98360.19;5068981;28;20024;-79
2023/01/20 11:12:13;;;;;;;3.90;2.10;;;;;;;12.98;63.47;98432.94;5090907;28;20028;-79
2023/01/20 11:14:39;;;;;;;4.80;2.38;;;;;;;12.57;63.70;98357.53;5090884;28;20177;-79
2023/01/20 11:17:07;;;;;;;1.73;1.20;;;;;;;12.95;63.52;98399.75;5094397;28;20103;-79
2023/01/20 11:19:47;;;;;;;4.20;2.83;;;;;;;12.97;63.90;98380.97;5097847;28;20048;-79
2023/01/20 11:22:21;;;;;;;4.50;3.08;;;;;;;13.07;64.24;98359.25;5100767;28;20732;-79
2023/01/20 11:24:47;;;;;;;7.97;5.20;;;;;;;11.78;63.93;98149.31;5079723;28;20016;-79
2023/01/20 11:27:19;;;;;;;2.65;1.80;;;;;;;11.89;64.11;98158.34;5088206;28;20112;-79
2023/01/20 11:29:55;;;;;;;;;;;;;;;13.08;64.42;98343.13;5090324;28;20077;-79
2023/01/20 11:32:31;;;;;;;3.60;2.40;;;;;;;12.73;64.75;98282.03;5090735;28;19915;-79
2023/01/20 11:34:58;;;;;;;6.80;3.13;;;;;;;13.18;65.30;98340.78;5087396;28;20028;-80
2023/01/20 11:37:26;;;;;;;3.45;2.55;;;;;;;13.17;65.61;98348.97;5091312;28;20426;-79
2023/01/20 11:39:51;;;;;;;4.72;3.25;;;;;;;13.16;65.68;98348.13;5088957;28;20031;-79
2023/01/20 11:42:26;;;;;;;4.18;2.80;;;;;;;13.18;65.92;98358.53;5101103;28;20015;-79
2023/01/20 11:45:00;;;;;;;3.05;1.45;;;;;;;13.24;65.88;98355.78;5088795;28;20051;-79
2023/01/20 11:47:32;;;;;;;3.05;1.80;;;;;;;13.35;65.44;98352.38;5091021;28;20069;-79
2023/01/20 11:50:03;;;;;;;2.42;1.20;;;;;;;13.43;65.05;98361.09;5090728;28;20205;-80
2023/01/20 11:52:44;;;;;;;2.38;1.30;;;;;;;13.40;65.06;98358.88;5085810;28;20158;-80